Time;durP1;ratioP1;P1;durP2;ratioP2;P2;SDS_P1;SDS_P2;PMS_P1;PMS_P2;Temp;Humidity;BMP_temperature;BMP_pressure;BME280_temperature;BME280_humidity;BME280_pressure;Samples;Min_cycle;Max_cycle;Signal;HPM_P1;HPM_P2
2022/04/22 00:01:21;;;;;;;12.27;6.13;;;11.90;99.90;;;;;;5091333;28;20047;-70
2022/04/22 00:03:47;;;;;;;12.85;6.63;;;11.90;99.90;;;;;;5103750;28;20035;-69
2022/04/22 00:06:13;;;;;;;12.07;6.38;;;11.80;99.90;;;;;;5110458;28;20393;-69
2022/04/22 00:08:39;;;;;;;11.93;6.22;;;11.80;99.90;;;;;;5091797;28;20050;-69
2022/04/22 00:13:49;;;;;;;12.23;6.93;;;11.80;99.90;;;;;;5093115;28;20051;-71
2022/04/22 00:16:16;;;;;;;12.15;6.82;;;11.80;99.90;;;;;;5110659;28;20096;-69
2022/04/22 00:18:42;;;;;;;14.07;6.60;;;11.80;99.90;;;;;;5110905;28;20047;-71
2022/04/22 00:21:08;;;;;;;12.38;6.40;;;11.80;99.90;;;;;;5092477;28;20137;-71
2022/04/22 00:23:33;;;;;;;12.40;7.07;;;11.80;99.90;;;;;;5101613;28;20059;-69
2022/04/22 00:25:59;;;;;;;15.57;6.50;;;12.70;99.90;;;;;;5085579;28;20052;-69
2022/04/22 00:28:24;;;;;;;13.25;7.25;;;11.60;99.90;;;;;;5110594;28;20052;-69
2022/04/22 00:30:50;;;;;;;17.25;6.93;;;11.60;99.90;;;;;;5092557;28;20047;-69
2022/04/22 00:33:17;;;;;;;17.58;7.07;;;11.60;99.90;;;;;;5091705;28;20069;-69
2022/04/22 00:35:44;;;;;;;15.65;7.53;;;11.60;99.90;;;;;;5092507;28;20066;-69
2022/04/22 00:38:10;;;;;;;13.75;7.38;;;11.50;99.90;;;;;;5109094;28;20134;-70
2022/04/22 00:40:35;;;;;;;13.30;7.35;;;11.50;99.90;;;;;;5110665;28;20528;-69
2022/04/22 00:43:21;;;;;;;13.55;7.05;;;11.50;99.90;;;;;;5092808;28;20047;-70
2022/04/22 00:45:47;;;;;;;11.02;7.13;;;11.40;99.90;;;;;;5110244;28;20055;-70
2022/04/22 00:48:14;;;;;;;9.55;6.68;;;11.40;99.90;;;;;;5110402;28;20422;-70
2022/04/22 00:50:40;;;;;;;15.40;6.88;;;11.40;99.90;;;;;;5089840;28;20039;-70
2022/04/22 00:53:07;;;;;;;14.23;7.20;;;11.30;99.90;;;;;;5093056;28;20426;-70
2022/04/22 00:55:35;;;;;;;13.23;6.80;;;11.30;99.90;;;;;;5110692;28;20125;-70
2022/04/22 00:58:02;;;;;;;12.15;6.47;;;11.20;99.90;;;;;;5109990;28;20488;-70
2022/04/22 01:00:28;;;;;;;10.52;6.63;;;11.20;99.90;;;;;;5091804;28;20112;-70
2022/04/22 01:02:54;;;;;;;12.00;6.88;;;11.10;99.90;;;;;;5109719;28;20464;-70
2022/04/22 01:10:49;;;;;;;11.77;7.30;;;11.10;99.90;;;;;;5091829;28;20039;-70
2022/04/22 01:13:16;;;;;;;9.85;6.68;;;11.10;99.90;;;;;;5109232;28;20059;-70
2022/04/22 01:15:43;;;;;;;12.30;6.88;;;11.00;99.90;;;;;;5113634;28;20035;-69
2022/04/22 01:18:09;;;;;;;12.13;6.60;;;11.00;99.90;;;;;;5111596;28;20100;-70
2022/04/22 01:20:35;;;;;;;13.63;7.28;;;10.90;99.90;;;;;;5109338;28;20068;-71
2022/04/22 01:23:00;;;;;;;10.77;6.65;;;10.90;99.90;;;;;;5103464;28;20044;-71
2022/04/22 01:25:26;;;;;;;13.07;7.03;;;10.90;99.90;;;;;;5110551;28;20067;-71
2022/04/22 01:27:52;;;;;;;12.00;6.63;;;10.80;99.90;;;;;;5107987;28;20043;-70
2022/04/22 01:30:22;;;;;;;14.48;7.22;;;10.80;99.90;;;;;;5109450;28;20499;-70
2022/04/22 01:32:50;;;;;;;10.90;6.15;;;10.80;99.90;;;;;;5108919;28;20071;-71
2022/04/22 01:35:17;;;;;;;15.10;7.05;;;10.80;99.90;;;;;;5109107;28;20043;-71
2022/04/22 01:37:43;;;;;;;12.25;6.90;;;10.70;99.90;;;;;;5107168;28;20035;-71
2022/04/22 01:40:10;;;;;;;11.15;6.80;;;10.70;99.90;;;;;;5111462;28;20044;-71
2022/04/22 01:42:36;;;;;;;11.75;7.40;;;10.70;99.90;;;;;;5108863;28;20046;-70
2022/04/22 01:45:03;;;;;;;15.88;6.97;;;10.70;99.90;;;;;;5109661;28;20491;-71
2022/04/22 01:47:29;;;;;;;10.88;6.32;;;10.60;99.90;;;;;;5091369;28;20118;-70
2022/04/22 01:49:55;;;;;;;11.40;6.82;;;10.60;99.90;;;;;;5108358;28;20047;-71
2022/04/22 01:52:21;;;;;;;13.93;6.93;;;10.60;99.90;;;;;;5108142;28;20040;-71
2022/04/22 01:54:50;;;;;;;10.77;6.60;;;11.50;99.90;;;;;;5090733;28;20142;-71
2022/04/22 01:57:15;;;;;;;10.50;6.50;;;10.50;99.90;;;;;;5108864;28;20130;-70
2022/04/22 01:59:44;;;;;;;12.00;6.28;;;10.60;99.90;;;;;;5109185;28;20126;-71
2022/04/22 02:02:13;;;;;;;11.95;6.47;;;10.40;99.90;;;;;;5101110;28;20233;-70
2022/04/22 02:04:39;;;;;;;13.50;6.55;;;10.40;99.90;;;;;;5088059;28;20048;-71
2022/04/22 02:07:05;;;;;;;13.10;6.32;;;10.40;99.90;;;;;;5091264;28;20376;-70
2022/04/22 02:09:31;;;;;;;11.13;6.20;;;11.20;99.90;;;;;;5109153;28;20398;-71
2022/04/22 02:11:56;;;;;;;11.90;7.07;;;10.30;99.90;;;;;;5107481;28;20108;-71
2022/04/22 02:14:22;;;;;;;11.23;5.97;;;10.30;99.90;;;;;;5109075;28;20468;-71
2022/04/22 02:16:48;;;;;;;9.82;6.10;;;10.20;99.90;;;;;;5107942;28;20100;-71
2022/04/22 02:19:14;;;;;;;10.38;5.82;;;10.20;99.90;;;;;;5109719;28;20051;-69
2022/04/22 02:21:41;;;;;;;10.52;6.28;;;10.10;99.90;;;;;;5106959;28;20158;-69
2022/04/22 02:24:07;;;;;;;13.80;6.53;;;10.10;99.90;;;;;;5108443;28;20043;-69
2022/04/22 02:28:31;;;;;;;10.48;6.40;;;10.40;99.90;;;;;;5108504;28;20039;-69
2022/04/22 02:29:19;;;;;;;9.77;6.07;;;10.00;99.90;;;;;;5108810;28;20050;-69
2022/04/22 02:31:44;;;;;;;8.93;6.15;;;10.00;99.90;;;;;;5107107;28;20043;-70
2022/04/22 02:34:10;;;;;;;12.90;6.07;;;10.00;99.90;;;;;;5109185;28;20126;-69
2022/04/22 02:36:36;;;;;;;12.68;6.13;;;10.00;99.90;;;;;;5107424;28;20051;-69
2022/04/22 02:39:02;;;;;;;11.10;6.28;;;10.00;99.90;;;;;;5107568;28;20040;-70
2022/04/22 02:46:56;;;;;;;10.10;5.95;;;9.90;99.90;;;;;;5108014;28;20380;-72
2022/04/22 02:49:22;;;;;;;11.68;6.30;;;9.80;99.90;;;;;;5109601;28;20065;-70
2022/04/22 02:51:48;;;;;;;10.45;6.00;;;9.80;99.90;;;;;;5087465;28;20100;-69
2022/04/22 02:54:13;;;;;;;12.55;6.07;;;9.80;99.90;;;;;;5110166;28;20096;-70
2022/04/22 02:56:39;;;;;;;11.52;5.75;;;9.70;99.90;;;;;;5107612;28;20127;-70
2022/04/22 02:59:05;;;;;;;10.32;6.00;;;9.70;99.90;;;;;;5090339;28;20168;-70
2022/04/22 03:01:33;;;;;;;9.00;5.80;;;9.60;99.90;;;;;;5107597;28;20080;-70
2022/04/22 03:03:58;;;;;;;10.40;6.13;;;9.60;99.90;;;;;;5089857;28;20047;-70
2022/04/22 03:06:26;;;;;;;12.50;5.80;;;9.60;99.90;;;;;;5105427;28;20550;-70
2022/04/22 03:08:52;;;;;;;11.90;5.97;;;9.60;99.90;;;;;;5108235;28;20040;-69
2022/04/22 03:11:21;;;;;;;9.45;5.25;;;10.00;99.90;;;;;;5090124;28;20047;-70
2022/04/22 03:13:49;;;;;;;11.15;6.28;;;9.50;99.90;;;;;;5090057;28;20051;-70
2022/04/22 03:16:17;;;;;;;9.68;5.68;;;9.50;99.90;;;;;;5090838;28;20047;-70
2022/04/22 03:18:43;;;;;;;9.63;5.55;;;9.50;99.90;;;;;;5107909;28;20173;-70
2022/04/22 03:21:08;;;;;;;9.65;5.97;;;9.50;99.90;;;;;;5106988;28;20118;-69
2022/04/22 03:23:35;;;;;;;9.80;5.90;;;9.50;99.90;;;;;;5080430;28;20048;-70
2022/04/22 03:26:01;;;;;;;11.05;6.18;;;9.50;99.90;;;;;;5092574;28;20081;-69
2022/04/22 03:28:26;;;;;;;13.40;6.68;;;9.50;99.90;;;;;;5107056;28;20086;-70
2022/04/22 03:30:52;;;;;;;9.98;5.75;;;9.40;99.90;;;;;;5107781;28;20171;-69
2022/04/22 03:33:19;;;;;;;10.10;5.80;;;9.40;99.90;;;;;;5108747;28;20118;-70
2022/04/22 03:35:50;;;;;;;12.65;6.45;;;9.40;99.90;;;;;;5106791;28;20047;-70
2022/04/22 03:38:19;;;;;;;10.48;6.32;;;9.40;99.90;;;;;;5106744;28;20050;-71
2022/04/22 03:40:49;;;;;;;10.32;5.80;;;9.30;99.90;;;;;;5110551;28;20090;-71
2022/04/22 03:43:15;;;;;;;9.57;5.95;;;9.30;99.90;;;;;;5110537;28;20051;-71
2022/04/22 03:45:41;;;;;;;11.40;5.40;;;9.90;99.90;;;;;;5112054;28;20122;-70
2022/04/22 03:48:07;;;;;;;10.98;6.22;;;9.20;99.90;;;;;;5111187;28;20122;-71
2022/04/22 03:50:34;;;;;;;11.77;6.20;;;9.20;99.90;;;;;;5111877;28;20043;-70
2022/04/22 03:53:00;;;;;;;10.20;6.22;;;9.10;99.90;;;;;;5091607;28;20063;-71
2022/04/22 03:55:26;;;;;;;9.88;5.60;;;9.10;99.90;;;;;;5092504;28;20048;-71
2022/04/22 03:58:10;;;;;;;8.05;5.95;;;9.10;99.90;;;;;;5093977;28;20051;-70
2022/04/22 04:00:46;;;;;;;9.65;5.82;;;9.10;99.90;;;;;;5113467;28;20032;-70
2022/04/22 04:03:13;;;;;;;;;;;9.10;99.90;;;;;;5109560;28;20497;-71
2022/04/22 04:05:40;;;;;;;10.30;5.47;;;9.00;99.90;;;;;;5111136;28;19923;-71
2022/04/22 04:08:09;;;;;;;11.25;6.25;;;9.00;99.90;;;;;;5110198;28;20126;-71
2022/04/22 04:16:03;;;;;;;13.20;6.30;;;8.90;99.90;;;;;;5095173;28;20085;-70
2022/04/22 04:18:31;;;;;;;8.40;5.25;;;8.90;99.90;;;;;;5111081;28;20101;-71
2022/04/22 04:23:42;;;;;;;9.88;5.60;;;8.80;99.90;;;;;;5110861;28;20047;-70
2022/04/22 04:26:08;;;;;;;11.38;5.78;;;8.80;99.90;;;;;;5113247;28;20138;-71
2022/04/22 04:28:35;;;;;;;10.60;6.03;;;8.80;99.90;;;;;;5112196;28;20043;-70
2022/04/22 04:31:01;;;;;;;10.90;5.25;;;8.70;99.90;;;;;;5109603;28;20398;-71
2022/04/22 04:33:28;;;;;;;9.63;5.85;;;8.70;99.90;;;;;;5110876;28;20044;-70
2022/04/22 04:35:54;;;;;;;8.48;5.53;;;8.80;99.90;;;;;;5110617;28;20414;-70
2022/04/22 04:38:20;;;;;;;8.00;5.70;;;8.70;99.90;;;;;;5108351;28;20048;-71
2022/04/22 04:40:46;;;;;;;11.13;5.30;;;8.70;99.90;;;;;;5110219;28;20089;-71
2022/04/22 04:43:12;;;;;;;9.43;5.00;;;8.70;99.90;;;;;;5105926;28;20036;-70
2022/04/22 04:45:37;;;;;;;9.23;4.82;;;8.70;99.90;;;;;;5107212;28;20039;-70
2022/04/22 04:48:04;;;;;;;10.45;5.10;;;8.70;99.90;;;;;;5112549;28;20046;-70
2022/04/22 04:50:30;;;;;;;9.30;4.85;;;8.80;99.90;;;;;;5109497;28;20084;-71
2022/04/22 04:52:57;;;;;;;8.50;5.38;;;8.70;99.90;;;;;;5108206;28;20044;-70
2022/04/22 04:55:23;;;;;;;8.75;5.13;;;8.70;99.90;;;;;;5110091;28;20048;-70
2022/04/22 04:57:48;;;;;;;10.20;5.18;;;8.60;99.90;;;;;;5091379;28;20161;-70
2022/04/22 05:00:14;;;;;;;10.57;5.25;;;8.60;99.90;;;;;;5111682;28;20125;-70
2022/04/22 05:02:40;;;;;;;11.18;5.28;;;8.60;99.90;;;;;;5108947;28;20050;-70
2022/04/22 05:05:07;;;;;;;9.20;4.70;;;8.70;99.90;;;;;;5110936;28;20048;-69
2022/04/22 05:07:56;;;;;;;10.80;4.97;;;8.70;99.90;;;;;;5108125;28;20081;-70
2022/04/22 05:10:22;;;;;;;8.05;5.03;;;8.70;99.90;;;;;;5091596;28;20115;-70
2022/04/22 05:12:48;;;;;;;8.25;4.72;;;8.70;99.90;;;;;;5109013;28;20196;-70
2022/04/22 05:15:17;;;;;;;7.35;4.28;;;8.70;99.90;;;;;;5110150;28;20445;-70
2022/04/22 05:17:44;;;;;;;8.25;4.47;;;8.80;99.90;;;;;;5109360;28;20489;-70
2022/04/22 05:20:15;;;;;;;9.30;4.60;;;8.80;99.90;;;;;;5109536;28;20080;-70
2022/04/22 05:22:42;;;;;;;7.50;4.20;;;8.70;99.90;;;;;;5107746;28;20470;-70
2022/04/22 05:25:10;;;;;;;9.90;4.35;;;8.70;99.90;;;;;;5108557;28;20065;-70
2022/04/22 05:27:36;;;;;;;9.18;4.43;;;8.70;99.90;;;;;;5108920;28;20394;-70
2022/04/22 05:32:48;;;;;;;9.15;4.00;;;8.70;99.90;;;;;;5107812;28;20392;-70
2022/04/22 05:35:16;;;;;;;8.93;4.30;;;8.90;99.90;;;;;;5111972;28;20130;-70
2022/04/22 05:37:52;;;;;;;9.95;4.20;;;8.80;99.90;;;;;;5112283;28;20051;-70
2022/04/22 05:40:21;;;;;;;8.07;4.05;;;8.80;99.90;;;;;;5094292;28;20048;-70
2022/04/22 05:42:48;;;;;;;6.30;3.90;;;8.80;99.90;;;;;;5107826;28;20424;-70
2022/04/22 05:45:15;;;;;;;7.60;4.10;;;8.80;99.90;;;;;;5108586;28;20052;-70
2022/04/22 05:47:41;;;;;;;6.78;4.03;;;8.90;99.90;;;;;;5108011;28;20036;-70
2022/04/22 05:50:09;;;;;;;7.53;4.38;;;8.90;99.90;;;;;;5109363;28;20467;-70
2022/04/22 05:52:37;;;;;;;6.72;3.55;;;8.90;99.90;;;;;;5106743;28;20040;-70
2022/04/22 05:55:04;;;;;;;7.18;3.90;;;8.90;99.90;;;;;;5101960;28;20458;-70
2022/04/22 05:57:31;;;;;;;7.00;3.85;;;8.90;99.90;;;;;;5090663;28;20047;-70
2022/04/22 06:00:04;;;;;;;7.25;3.75;;;9.00;99.90;;;;;;5090744;28;20121;-72
2022/04/22 06:02:30;;;;;;;6.88;4.00;;;9.10;99.90;;;;;;5090733;28;20039;-70
2022/04/22 06:04:55;;;;;;;5.95;3.45;;;9.10;99.90;;;;;;5108463;28;20043;-69
2022/04/22 06:07:21;;;;;;;5.55;3.45;;;9.20;99.90;;;;;;5106616;28;20345;-69
2022/04/22 06:12:32;;;;;;;11.88;3.60;;;9.30;99.90;;;;;;5085060;28;20044;-70
2022/04/22 06:15:02;;;;;;;7.80;3.67;;;9.70;99.90;;;;;;5100448;28;20260;-71
2022/04/22 06:17:29;;;;;;;8.00;3.60;;;8.70;99.90;;;;;;5107502;28;20492;-71
2022/04/22 06:19:58;;;;;;;5.40;3.30;;;9.40;99.90;;;;;;5108483;28;20376;-71
2022/04/22 06:22:25;;;;;;;6.45;3.38;;;9.50;99.90;;;;;;5107094;28;20043;-69
2022/04/22 06:24:51;;;;;;;5.18;3.00;;;9.60;99.90;;;;;;5107472;28;20085;-70
2022/04/22 06:27:28;;;;;;;7.30;3.35;;;9.70;99.90;;;;;;5107959;28;20039;-70
2022/04/22 06:29:55;;;;;;;9.82;3.47;;;9.80;99.90;;;;;;5072263;28;20044;-71
2022/04/22 06:32:22;;;;;;;7.65;3.40;;;9.70;99.90;;;;;;5107938;28;20059;-71
2022/04/22 06:34:50;;;;;;;7.25;3.40;;;9.80;99.90;;;;;;5108819;28;20104;-70
2022/04/22 06:37:16;;;;;;;8.23;3.13;;;9.90;99.90;;;;;;5086525;28;20170;-70
2022/04/22 06:47:57;;;;;;;5.93;3.00;;;10.10;99.90;;;;;;5086956;28;20473;-70
2022/04/22 06:50:23;;;;;;;6.95;2.95;;;10.20;99.90;;;;;;5088053;28;20126;-71
2022/04/22 06:52:49;;;;;;;6.65;3.08;;;10.20;99.90;;;;;;5084917;28;20036;-70
2022/04/22 06:55:17;;;;;;;7.90;3.10;;;10.30;99.90;;;;;;5089251;28;20071;-71
2022/04/22 06:57:47;;;;;;;8.63;3.50;;;10.40;99.90;;;;;;5087791;28;20428;-71
2022/04/22 07:00:13;;;;;;;8.05;3.40;;;10.40;99.90;;;;;;5099018;28;20406;-70
2022/04/22 07:02:39;;;;;;;7.18;3.47;;;10.50;99.90;;;;;;5106894;28;20052;-71
2022/04/22 07:05:05;;;;;;;8.35;3.50;;;10.60;99.90;;;;;;5107531;28;20417;-71
2022/04/22 07:07:31;;;;;;;6.93;3.10;;;10.60;99.90;;;;;;5106723;28;20055;-70
2022/04/22 07:09:57;;;;;;;7.55;3.38;;;10.60;99.90;;;;;;5108473;28;20120;-71
2022/04/22 07:12:27;;;;;;;7.38;3.10;;;10.80;99.90;;;;;;5107360;28;20035;-69
2022/04/22 07:15:03;;;;;;;6.60;3.15;;;10.80;99.90;;;;;;5105860;28;20373;-73
2022/04/22 07:17:30;;;;;;;5.55;3.13;;;10.90;99.90;;;;;;5073091;28;20094;-69
2022/04/22 07:19:56;;;;;;;8.65;3.20;;;11.50;99.90;;;;;;5110591;28;20552;-70
2022/04/22 07:22:22;;;;;;;10.60;3.30;;;11.00;99.90;;;;;;5092191;28;20040;-71
2022/04/22 07:24:48;;;;;;;10.60;3.17;;;11.20;99.90;;;;;;5110517;28;20415;-70
2022/04/22 07:27:16;;;;;;;5.25;3.20;;;11.20;99.90;;;;;;5111142;28;20040;-70
2022/04/22 07:29:42;;;;;;;6.70;2.97;;;12.40;99.90;;;;;;5111711;28;20047;-71
2022/04/22 07:32:08;;;;;;;8.32;3.30;;;11.30;99.90;;;;;;5093202;28;20035;-70
2022/04/22 07:34:33;;;;;;;6.22;3.60;;;11.40;99.90;;;;;;5092376;28;20448;-72
2022/04/22 07:37:00;;;;;;;7.60;3.30;;;11.50;99.90;;;;;;5104233;28;20071;-71
2022/04/22 07:39:26;;;;;;;6.43;3.25;;;11.60;99.90;;;;;;5073803;28;20067;-72
2022/04/22 07:41:53;;;;;;;5.68;3.20;;;11.60;99.90;;;;;;5092276;28;20130;-71
2022/04/22 07:47:08;;;;;;;7.38;3.30;;;11.90;99.90;;;;;;5110124;28;20069;-71
2022/04/22 07:49:34;;;;;;;5.93;3.20;;;12.00;99.90;;;;;;5109859;28;20051;-71
2022/04/22 07:52:00;;;;;;;7.57;3.40;;;12.00;99.90;;;;;;5109418;28;20384;-72
2022/04/22 07:54:25;;;;;;;5.50;3.17;;;12.10;99.90;;;;;;5111592;28;20503;-72
2022/04/22 07:56:52;;;;;;;6.78;3.40;;;12.10;99.90;;;;;;5095983;28;20039;-72
2022/04/22 07:59:17;;;;;;;6.63;3.58;;;12.20;99.90;;;;;;5092813;28;20518;-73
2022/04/22 08:01:43;;;;;;;9.55;3.80;;;12.30;99.90;;;;;;5108625;28;20031;-73
2022/04/22 08:04:10;;;;;;;6.43;3.28;;;12.40;99.90;;;;;;5111389;28;20043;-69
2022/04/22 08:06:37;;;;;;;5.45;3.20;;;12.50;99.90;;;;;;5109708;28;20051;-69
2022/04/22 08:09:02;;;;;;;4.97;3.03;;;12.50;99.90;;;;;;5110060;28;20052;-69
2022/04/22 08:11:28;;;;;;;6.60;3.20;;;12.60;99.90;;;;;;5092789;28;20059;-70
2022/04/22 08:13:55;;;;;;;6.20;3.20;;;12.70;99.90;;;;;;5074986;28;20134;-68
2022/04/22 08:16:20;;;;;;;6.10;3.22;;;12.90;99.90;;;;;;5090693;28;20048;-68
2022/04/22 08:18:46;;;;;;;6.13;3.10;;;13.00;99.90;;;;;;5090385;28;20051;-68
2022/04/22 08:21:11;;;;;;;6.45;3.15;;;13.10;99.90;;;;;;5103997;28;20092;-68
2022/04/22 08:23:37;;;;;;;5.82;3.10;;;13.10;99.90;;;;;;5108904;28;20084;-68
2022/04/22 08:26:04;;;;;;;7.43;3.53;;;13.20;99.90;;;;;;5107252;28;20444;-68
2022/04/22 08:28:29;;;;;;;7.10;3.28;;;13.40;99.90;;;;;;5108460;28;20167;-68
2022/04/22 08:30:55;;;;;;;5.75;3.00;;;13.50;99.90;;;;;;5108476;28;20118;-69
2022/04/22 08:33:21;;;;;;;6.95;3.17;;;13.60;99.90;;;;;;5109325;28;20075;-68
2022/04/22 08:35:46;;;;;;;5.00;3.05;;;13.70;99.90;;;;;;5075145;28;20035;-67
2022/04/22 08:38:12;;;;;;;14.77;3.33;;;13.80;99.90;;;;;;5108549;28;20424;-70
2022/04/22 08:40:38;;;;;;;6.60;3.22;;;13.90;99.90;;;;;;5092293;28;20035;-70
2022/04/22 08:43:07;;;;;;;5.15;3.00;;;14.10;99.90;;;;;;5104578;28;20174;-69
2022/04/22 08:45:36;;;;;;;6.22;2.90;;;14.20;99.90;;;;;;5077114;28;20101;-69
2022/04/22 08:50:52;;;;;;;9.60;2.92;;;14.50;99.90;;;;;;5104849;28;20503;-68
2022/04/22 08:53:23;;;;;;;5.75;3.00;;;14.60;99.90;;;;;;5072499;28;20092;-68
2022/04/22 08:55:55;;;;;;;5.97;2.80;;;14.70;99.90;;;;;;5109258;28;20039;-68
2022/04/22 08:58:23;;;;;;;6.75;2.78;;;14.80;99.90;;;;;;5091148;28;20059;-68
2022/04/22 09:00:51;;;;;;;5.25;2.90;;;15.00;99.90;;;;;;5110034;28;20050;-69
2022/04/22 09:03:17;;;;;;;4.63;2.80;;;15.20;99.90;;;;;;5090787;28;20528;-68
2022/04/22 09:05:43;;;;;;;7.95;3.20;;;15.40;99.90;;;;;;5090561;28;20455;-68
2022/04/22 09:08:10;;;;;;;7.28;2.92;;;15.60;99.90;;;;;;5103425;28;20135;-68
2022/04/22 09:10:38;;;;;;;4.75;2.63;;;15.70;99.90;;;;;;5110227;28;20047;-68
2022/04/22 09:13:09;;;;;;;6.85;2.85;;;15.90;99.90;;;;;;5108386;28;20036;-68
2022/04/22 09:15:36;;;;;;;9.13;2.88;;;16.10;99.90;;;;;;5091881;28;20043;-69
2022/04/22 09:18:12;;;;;;;10.57;2.80;;;16.20;99.90;;;;;;5108233;28;20101;-68
2022/04/22 09:20:38;;;;;;;5.25;2.90;;;16.40;99.90;;;;;;5076649;28;20081;-69
2022/04/22 09:23:28;;;;;;;5.40;2.90;;;16.50;99.90;;;;;;5084829;28;20148;-69
2022/04/22 09:25:53;;;;;;;5.95;3.10;;;16.70;99.90;;;;;;5102751;28;20056;-71
2022/04/22 09:28:19;;;;;;;5.05;3.08;;;17.70;99.90;;;;;;5105155;28;20039;-72
2022/04/22 09:30:55;;;;;;;8.65;3.13;;;17.10;99.90;;;;;;5108119;28;20066;-72
2022/04/22 09:33:21;;;;;;;7.18;2.85;;;17.00;99.90;;;;;;5109010;28;20480;-72
2022/04/22 09:43:59;;;;;;;5.47;2.70;;;20.10;99.30;;;;;;5108643;28;20052;-70
2022/04/22 09:46:32;;;;;;;5.75;3.03;;;22.60;95.60;;;;;;5093156;28;20050;-72
2022/04/22 09:48:58;;;;;;;5.47;2.88;;;25.10;91.10;;;;;;5086196;28;20052;-72
2022/04/22 09:51:27;;;;;;;5.82;2.63;;;27.70;83.60;;;;;;5081197;28;20044;-71
2022/04/22 09:54:14;;;;;;;5.78;2.92;;;29.60;73.80;;;;;;5107614;28;20395;-72
2022/04/22 09:56:55;;;;;;;5.63;2.70;;;31.60;68.30;;;;;;5121400;27;20051;-72
2022/04/22 09:59:21;;;;;;;5.18;2.88;;;33.20;61.20;;;;;;5098022;28;20391;-72
2022/04/22 10:01:49;;;;;;;4.55;2.45;;;34.40;56.20;;;;;;5087136;28;20399;-72
2022/04/22 10:04:19;;;;;;;7.22;2.60;;;35.50;53.70;;;;;;5103543;28;20317;-71
2022/04/22 10:06:46;;;;;;;6.00;2.50;;;36.60;52.60;;;;;;5067598;28;20055;-72
2022/04/22 10:09:16;;;;;;;6.88;2.70;;;37.80;50.80;;;;;;5068754;28;20540;-72
2022/04/22 10:11:44;;;;;;;5.50;2.58;;;38.70;48.00;;;;;;5087054;28;20449;-72
2022/04/22 10:14:11;;;;;;;6.95;2.60;;;39.10;46.20;;;;;;5107495;28;20099;-72
2022/04/22 10:16:37;;;;;;;6.50;2.60;;;39.60;45.40;;;;;;5072955;28;20149;-72
2022/04/22 10:19:05;;;;;;;7.57;2.50;;;40.00;44.50;;;;;;5090387;28;20043;-72
2022/04/22 10:21:31;;;;;;;6.25;2.70;;;40.10;43.80;;;;;;5107318;28;20467;-72
2022/04/22 10:23:57;;;;;;;7.72;2.53;;;40.60;42.90;;;;;;5107092;28;20506;-73
2022/04/22 10:26:26;;;;;;;6.78;2.40;;;41.10;42.40;;;;;;5071146;28;20071;-73
2022/04/22 10:28:53;;;;;;;5.68;2.70;;;41.40;41.00;;;;;;5102635;28;20424;-73
2022/04/22 10:31:20;;;;;;;6.60;2.75;;;41.50;40.80;;;;;;5089661;28;20047;-72
2022/04/22 10:33:46;;;;;;;6.45;2.53;;;41.70;40.60;;;;;;5108086;28;20856;-72
2022/04/22 10:36:22;;;;;;;5.00;2.45;;;41.70;40.00;;;;;;5106176;28;20044;-72
2022/04/22 10:38:49;;;;;;;5.20;2.45;;;41.90;40.10;;;;;;5108110;28;20051;-72
2022/04/22 10:41:20;;;;;;;6.20;2.58;;;42.00;39.30;;;;;;5089573;28;20059;-73
2022/04/22 10:49:38;;;;;;;7.55;2.88;;;42.50;39.30;;;;;;5109012;28;20079;-72
2022/04/22 10:52:15;;;;;;;6.43;2.67;;;42.60;38.50;;;;;;5105887;28;20063;-73
2022/04/22 10:54:53;;;;;;;4.78;2.60;;;42.40;38.30;;;;;;5106694;28;20059;-72
2022/04/22 10:57:20;;;;;;;5.95;2.47;;;41.90;38.50;;;;;;5108862;28;20150;-72
2022/04/22 11:00:01;;;;;;;9.18;2.80;;;41.10;38.30;;;;;;5108759;28;20433;-69
2022/04/22 11:02:31;;;;;;;3.72;2.22;;;40.70;38.40;;;;;;5105560;28;20027;-69
2022/04/22 11:05:19;;;;;;;6.53;2.40;;;40.50;38.20;;;;;;5106807;28;20052;-69
2022/04/22 11:07:50;;;;;;;4.00;2.22;;;39.90;38.40;;;;;;5105477;28;20047;-68
2022/04/22 11:10:23;;;;;;;7.68;2.60;;;40.30;38.20;;;;;;5090107;28;20040;-71
2022/04/22 11:12:54;;;;;;;4.13;2.28;;;40.90;37.80;;;;;;5106386;28;20072;-69
2022/04/22 11:15:47;;;;;;;5.03;2.42;;;41.20;37.90;;;;;;5108030;28;20094;-69
2022/04/22 11:18:15;;;;;;;5.10;2.25;;;42.20;37.50;;;;;;5106942;28;20085;-69
2022/04/22 11:21:19;;;;;;;6.05;2.50;;;42.50;37.30;;;;;;5107058;28;20059;-69
2022/04/22 11:23:45;;;;;;;5.63;2.40;;;43.20;37.10;;;;;;5072834;28;20249;-67
2022/04/22 11:26:13;;;;;;;8.02;2.90;;;43.80;36.90;;;;;;5106245;28;20115;-69
2022/04/22 11:28:41;;;;;;;5.38;2.58;;;43.70;36.30;;;;;;5088985;28;20047;-69
2022/04/22 11:31:09;;;;;;;5.47;2.50;;;43.60;35.90;;;;;;5107215;28;20047;-69
2022/04/22 11:33:49;;;;;;;4.13;2.50;;;42.90;36.00;;;;;;5107285;28;20408;-69
2022/04/22 11:36:14;;;;;;;7.50;2.50;;;41.90;36.00;;;;;;5105240;28;20517;-69
2022/04/22 11:38:52;;;;;;;6.95;2.40;;;40.00;36.40;;;;;;5107393;28;20051;-69
2022/04/22 11:41:18;;;;;;;7.43;2.55;;;37.70;36.90;;;;;;5088927;28;20052;-69
2022/04/22 11:43:45;;;;;;;14.25;2.80;;;35.60;37.90;;;;;;5106792;28;20598;-69
2022/04/22 11:46:14;;;;;;;5.90;2.45;;;33.70;38.80;;;;;;5107808;28;20096;-70
2022/04/22 11:48:53;;;;;;;5.28;2.50;;;31.90;39.80;;;;;;5106724;28;20043;-68
2022/04/22 11:51:20;;;;;;;5.20;2.53;;;31.10;40.70;;;;;;5106560;28;20042;-70
2022/04/22 11:53:51;;;;;;;6.13;2.70;;;29.80;42.20;;;;;;5106974;28;20318;-69
2022/04/22 11:56:24;;;;;;;4.93;2.67;;;29.30;42.60;;;;;;5073137;28;20106;-69
2022/04/22 11:58:56;;;;;;;7.47;2.72;;;29.00;43.60;;;;;;5087089;28;20143;-69
2022/04/22 12:07:03;;;;;;;8.47;3.00;;;33.80;40.80;;;;;;5089786;28;20169;-68
2022/04/22 12:09:29;;;;;;;5.63;2.80;;;35.40;39.50;;;;;;5090320;28;20287;-69
2022/04/22 12:11:58;;;;;;;7.40;2.83;;;35.90;39.00;;;;;;5091027;28;20044;-68
2022/04/22 12:14:26;;;;;;;6.50;3.35;;;36.50;38.60;;;;;;5091184;28;20059;-68
2022/04/22 12:16:59;;;;;;;5.07;2.90;;;37.00;38.40;;;;;;5092346;28;20051;-68
2022/04/22 12:19:26;;;;;;;6.15;2.70;;;37.40;38.40;;;;;;5112224;28;20478;-68
2022/04/22 12:21:53;;;;;;;8.30;3.33;;;37.50;38.20;;;;;;5108212;28;20082;-68
2022/04/22 12:24:21;;;;;;;6.90;3.20;;;37.90;37.90;;;;;;5092649;28;20043;-68
2022/04/22 12:26:47;;;;;;;9.07;3.00;;;38.20;37.70;;;;;;5091325;28;20058;-67
2022/04/22 12:29:17;;;;;;;4.13;2.78;;;37.90;37.30;;;;;;5109662;28;20069;-68
2022/04/22 12:31:47;;;;;;;8.43;2.60;;;38.20;37.40;;;;;;5091564;28;20110;-68
2022/04/22 12:34:14;;;;;;;7.70;3.03;;;37.60;37.50;;;;;;5092184;28;20047;-68
2022/04/22 12:36:52;;;;;;;7.00;3.10;;;36.10;37.60;;;;;;5089071;28;20040;-68
2022/04/22 12:39:38;;;;;;;6.40;3.22;;;33.80;38.90;;;;;;5110735;28;20126;-68
2022/04/22 12:42:26;;;;;;;6.22;3.20;;;31.80;40.20;;;;;;5110330;28;20050;-68
2022/04/22 12:53:34;;;;;;;7.30;3.30;;;26.90;45.20;;;;;;5104815;28;20143;-69
2022/04/22 12:56:05;;;;;;;8.48;3.80;;;26.10;46.30;;;;;;5070736;28;20463;-69
2022/04/22 12:58:32;;;;;;;7.05;3.72;;;25.60;47.20;;;;;;5088643;28;20048;-68
2022/04/22 13:00:59;;;;;;;6.10;3.58;;;25.00;47.90;;;;;;5089113;28;20044;-69
2022/04/22 13:03:37;;;;;;;5.97;3.78;;;24.60;48.80;;;;;;5089134;28;20040;-69
2022/04/22 13:06:03;;;;;;;10.05;4.07;;;24.30;49.90;;;;;;5090007;28;20044;-69
2022/04/22 13:08:29;;;;;;;9.73;3.95;;;24.00;50.20;;;;;;5090993;28;20043;-68
2022/04/22 13:10:58;;;;;;;10.60;4.15;;;23.80;50.70;;;;;;5090116;28;20485;-68
2022/04/22 13:13:23;;;;;;;7.07;3.90;;;23.70;51.30;;;;;;5089319;28;20044;-68
2022/04/22 13:15:49;;;;;;;10.50;4.03;;;23.80;51.50;;;;;;5089442;28;20063;-68
2022/04/22 13:18:15;;;;;;;6.97;3.75;;;24.10;51.90;;;;;;5102638;28;20042;-68
2022/04/22 13:20:40;;;;;;;7.65;3.97;;;23.70;52.20;;;;;;5110915;28;20044;-68
2022/04/22 13:23:07;;;;;;;7.97;4.10;;;23.60;52.30;;;;;;5103593;28;20094;-68
2022/04/22 13:25:33;;;;;;;7.82;4.00;;;23.50;52.50;;;;;;5087065;28;20378;-68
2022/04/22 13:27:59;;;;;;;6.38;4.03;;;23.50;52.80;;;;;;5088866;28;20082;-70
2022/04/22 13:30:25;;;;;;;7.60;4.07;;;23.50;53.00;;;;;;5089533;28;20122;-70
2022/04/22 13:32:50;;;;;;;8.80;4.05;;;23.50;53.10;;;;;;5088129;28;20444;-70
2022/04/22 13:35:16;;;;;;;7.45;4.20;;;23.40;53.20;;;;;;5071492;28;20052;-69
2022/04/22 13:37:42;;;;;;;7.18;4.18;;;23.30;53.30;;;;;;5087944;28;20598;-69
2022/04/22 13:40:08;;;;;;;7.35;3.85;;;23.20;53.60;;;;;;5094478;28;20063;-69
2022/04/22 13:42:33;;;;;;;10.80;4.40;;;23.10;53.90;;;;;;5106125;27;20038;-68
2022/04/22 13:53:12;;;;;;;8.48;4.05;;;23.10;55.10;;;;;;5109401;28;20051;-69
2022/04/22 13:55:39;;;;;;;7.63;3.88;;;23.20;54.70;;;;;;5098218;28;20195;-70
2022/04/22 13:58:06;;;;;;;9.70;4.15;;;23.10;54.60;;;;;;5070366;28;20135;-71
2022/04/22 14:00:31;;;;;;;10.13;4.20;;;23.10;54.90;;;;;;5100110;28;20047;-70
2022/04/22 14:02:57;;;;;;;11.90;4.38;;;23.00;55.10;;;;;;5107606;28;20043;-70
2022/04/22 14:05:23;;;;;;;9.73;4.22;;;23.00;55.70;;;;;;5109577;28;20071;-70
2022/04/22 14:07:49;;;;;;;9.95;4.50;;;23.10;56.50;;;;;;5105296;28;20487;-69